createdAt,value
2019-05-02T00:01:33.821Z,71.50
2019-05-02T00:04:03.564Z,71.50
2019-05-02T00:06:38.053Z,71.50
2019-05-02T00:09:09.300Z,71.40
2019-05-02T00:11:38.060Z,71.40
2019-05-02T00:14:07.709Z,71.50
2019-05-02T00:16:37.217Z,71.40
2019-05-02T00:19:09.112Z,71.50
2019-05-02T00:21:40.762Z,71.50
2019-05-02T00:24:10.801Z,71.70
2019-05-02T00:26:40.191Z,71.60
2019-05-02T00:29:09.680Z,71.60
2019-05-02T00:31:41.882Z,71.60
2019-05-02T00:34:10.174Z,71.50
2019-05-02T00:36:39.639Z,71.70
2019-05-02T00:39:13.650Z,71.80
2019-05-02T00:41:40.690Z,72.00
2019-05-02T00:44:10.929Z,72.20
2019-05-02T00:46:40.621Z,72.40
2019-05-02T00:49:10.010Z,72.50
2019-05-02T00:51:39.415Z,72.70
2019-05-02T00:54:08.831Z,73.00
2019-05-02T00:56:40.230Z,73.30
2019-05-02T00:59:09.297Z,73.60
2019-05-02T01:01:51.315Z,73.90
2019-05-02T01:04:28.821Z,74.00
2019-05-02T01:06:58.860Z,74.30
2019-05-02T01:09:28.649Z,74.30
2019-05-02T01:11:58.169Z,74.30
2019-05-02T01:14:31.849Z,74.30
2019-05-02T01:16:58.615Z,74.50
2019-05-02T01:19:28.052Z,74.50
2019-05-02T01:21:57.459Z,74.60
2019-05-02T01:24:26.914Z,74.60
2019-05-02T01:27:17.923Z,74.70
2019-05-02T01:30:01.485Z,74.70
2019-05-02T01:32:43.367Z,74.70
2019-05-02T01:35:43.887Z,74.70
2019-05-02T01:38:26.374Z,74.70
2019-05-02T01:40:54.765Z,74.60
2019-05-02T01:43:29.517Z,74.70
2019-05-02T01:45:58.963Z,74.60
2019-05-02T01:48:28.375Z,74.60
2019-05-02T01:50:57.751Z,74.70
2019-05-02T01:53:29.238Z,75.00
2019-05-02T01:55:59.415Z,75.20
2019-05-02T01:58:29.028Z,75.40
2019-05-02T02:00:58.421Z,75.70
2019-05-02T02:03:27.854Z,75.90
2019-05-02T02:05:57.440Z,76.00
2019-05-02T02:08:27.353Z,76.10
2019-05-02T02:10:58.202Z,76.20
2019-05-02T02:13:31.403Z,76.10
2019-05-02T02:16:00.231Z,76.10
2019-05-02T02:18:31.743Z,76.20
2019-05-02T02:21:19.987Z,76.10
2019-05-02T02:24:07.137Z,76.30
2019-05-02T02:26:36.568Z,76.40
2019-05-02T02:29:07.933Z,76.50
2019-05-02T02:31:39.772Z,76.50
2019-05-02T02:34:08.081Z,76.60
2019-05-02T02:36:37.493Z,76.60
2019-05-02T02:39:14.013Z,76.50
2019-05-02T02:41:39.604Z,77.20
2019-05-02T02:44:15.435Z,76.50
2019-05-02T02:46:45.855Z,76.50
2019-05-02T02:49:21.666Z,76.30
2019-05-02T02:51:46.263Z,76.30
2019-05-02T02:54:15.682Z,76.20
2019-05-02T02:56:45.066Z,76.20
2019-05-02T02:59:19.290Z,76.20
2019-05-02T03:01:45.521Z,76.30
2019-05-02T03:04:14.948Z,76.30
2019-05-02T03:06:46.963Z,76.30
2019-05-02T03:09:20.120Z,76.40
2019-05-02T03:12:07.177Z,76.40
2019-05-02T03:14:41.006Z,76.50
2019-05-02T03:17:11.257Z,76.70
2019-05-02T03:19:40.895Z,76.70
2019-05-02T03:22:10.330Z,76.90
2019-05-02T03:24:44.259Z,77.00
2019-05-02T03:27:10.904Z,77.10
2019-05-02T03:29:44.144Z,77.10
2019-05-02T03:32:16.223Z,77.10
2019-05-02T03:34:48.825Z,77.10
2019-05-02T03:37:14.246Z,77.10
2019-05-02T03:39:49.776Z,77.10
2019-05-02T03:42:14.799Z,77.20
2019-05-02T03:44:55.064Z,77.20
2019-05-02T03:47:15.299Z,77.20
2019-05-02T03:49:48.894Z,77.30
2019-05-02T03:52:15.760Z,77.40
2019-05-02T03:54:50.301Z,77.40
2019-05-02T03:57:16.523Z,77.40
2019-05-02T03:59:45.917Z,77.40
2019-05-02T04:02:20.303Z,77.30
2019-05-02T04:04:54.320Z,77.30
2019-05-02T04:07:20.923Z,77.30
2019-05-02T04:09:51.123Z,77.20
2019-05-02T04:12:21.986Z,77.10
2019-05-02T04:14:55.400Z,77.00
2019-05-02T04:17:28.991Z,76.90
2019-05-02T04:19:54.100Z,77.00
2019-05-02T04:22:23.640Z,77.10
2019-05-02T04:24:56.339Z,77.00
2019-05-02T04:27:27.867Z,77.00
2019-05-02T04:29:56.099Z,76.90
2019-05-02T04:32:25.504Z,76.80
2019-05-02T04:34:57.751Z,76.70
2019-05-02T04:37:25.960Z,76.50
2019-05-02T04:39:59.159Z,76.50
2019-05-02T04:42:29.122Z,76.50
2019-05-02T04:45:13.898Z,76.30
2019-05-02T04:47:29.150Z,76.30
2019-05-02T04:49:58.693Z,76.00
2019-05-02T04:52:28.789Z,75.70
2019-05-02T04:55:08.186Z,75.50
2019-05-02T04:57:36.958Z,75.20
2019-05-02T05:00:06.761Z,74.90
2019-05-02T05:02:36.628Z,74.50
2019-05-02T05:05:03.087Z,74.30
2019-05-02T05:07:41.083Z,74.00
2019-05-02T05:10:03.706Z,73.70
2019-05-02T05:12:38.025Z,73.30
2019-05-02T05:15:04.219Z,73.00
2019-05-02T05:17:34.269Z,72.60
2019-05-02T05:20:10.391Z,72.30
2019-05-02T05:22:36.544Z,72.10
2019-05-02T05:25:12.220Z,71.80
2019-05-02T05:27:41.246Z,71.50
2019-05-02T05:30:15.526Z,71.10
2019-05-02T05:32:41.673Z,70.70
2019-05-02T05:35:12.889Z,70.30
2019-05-02T05:37:43.167Z,70.00
2019-05-02T05:40:13.319Z,69.70
2019-05-02T05:42:42.820Z,69.30
2019-05-02T05:45:13.944Z,69.00
2019-05-02T05:47:43.500Z,68.60
2019-05-02T05:50:12.959Z,68.20
2019-05-02T05:52:42.668Z,67.70
2019-05-02T05:55:12.794Z,67.50
2019-05-02T05:57:43.120Z,67.10
2019-05-02T06:00:17.407Z,66.70
2019-05-02T06:02:53.867Z,66.50
2019-05-02T06:05:14.699Z,66.30
2019-05-02T06:07:45.037Z,65.90
2019-05-02T06:10:15.238Z,65.70
2019-05-02T06:12:44.723Z,65.30
2019-05-02T06:15:14.420Z,64.90
2019-05-02T06:17:43.804Z,64.70
2019-05-02T06:20:13.740Z,64.30
2019-05-02T06:22:43.163Z,64.00
2019-05-02T06:25:13.315Z,63.50
2019-05-02T06:27:42.724Z,63.00
2019-05-02T06:30:12.667Z,62.40
2019-05-02T06:32:42.054Z,61.90
2019-05-02T06:35:11.983Z,61.50
2019-05-02T06:37:45.381Z,61.30
2019-05-02T06:40:12.647Z,60.80
2019-05-02T06:42:42.091Z,60.40
2019-05-02T06:45:11.868Z,59.80
2019-05-02T06:47:43.446Z,59.30
2019-05-02T06:50:12.640Z,58.90
2019-05-02T06:52:42.036Z,58.70
2019-05-02T06:55:11.407Z,58.40
2019-05-02T06:57:40.767Z,57.90
2019-05-02T07:00:10.565Z,57.80
2019-05-02T07:02:39.939Z,57.30
2019-05-02T07:05:09.868Z,57.10
2019-05-02T07:07:39.388Z,57.30
2019-05-02T07:10:09.603Z,56.50
2019-05-02T07:12:39.080Z,56.30
2019-05-02T07:15:13.141Z,55.90
2019-05-02T07:17:44.338Z,55.50
2019-05-02T07:20:14.376Z,55.00
2019-05-02T07:22:45.559Z,55.60
2019-05-02T07:25:16.917Z,54.50
2019-05-02T07:27:46.308Z,54.50
2019-05-02T07:30:16.023Z,54.40
2019-05-02T07:32:45.439Z,54.10
2019-05-02T07:35:19.307Z,54.10
2019-05-02T07:37:48.816Z,53.90
2019-05-02T07:40:18.938Z,53.90
2019-05-02T07:42:48.308Z,53.60
2019-05-02T07:45:17.675Z,53.40
2019-05-02T07:47:47.088Z,52.80
2019-05-02T07:50:16.525Z,52.80
2019-05-02T07:52:45.906Z,52.70
2019-05-02T07:55:15.326Z,52.90
2019-05-02T07:57:44.719Z,52.90
2019-05-02T08:00:14.842Z,52.50
2019-05-02T08:02:44.163Z,52.20
2019-05-02T08:05:15.532Z,52.00
2019-05-02T08:07:44.937Z,52.10
2019-05-02T08:10:21.226Z,52.00
2019-05-02T08:12:47.260Z,52.00
2019-05-02T08:15:16.963Z,51.80
2019-05-02T08:17:53.366Z,51.50
2019-05-02T08:20:19.084Z,51.00
2019-05-02T08:22:50.191Z,50.90
2019-05-02T08:25:19.860Z,50.60
2019-05-02T08:28:00.588Z,50.60
2019-05-02T08:30:40.615Z,50.40
2019-05-02T08:33:07.734Z,50.20
2019-05-02T08:35:37.147Z,50.00
2019-05-02T08:38:06.567Z,49.90
2019-05-02T08:40:35.959Z,49.50
2019-05-02T08:43:09.199Z,49.10
2019-05-02T08:45:38.362Z,48.90
2019-05-02T08:48:07.959Z,48.60
2019-05-02T08:50:37.417Z,48.20
2019-05-02T08:53:06.831Z,48.20
2019-05-02T08:55:36.276Z,48.10
2019-05-02T08:58:06.571Z,47.80
2019-05-02T09:00:37.597Z,47.80
2019-05-02T09:03:07.903Z,47.40
2019-05-02T09:05:45.308Z,47.00
2019-05-02T09:08:09.265Z,46.60
2019-05-02T09:10:42.069Z,46.30
2019-05-02T09:13:10.494Z,45.60
2019-05-02T09:15:46.312Z,45.60
2019-05-02T09:18:12.445Z,45.30
2019-05-02T09:20:42.362Z,44.80
2019-05-02T09:23:12.382Z,44.40
2019-05-02T09:25:43.013Z,44.10
2019-05-02T09:28:12.667Z,44.30
2019-05-02T09:30:42.077Z,44.30
2019-05-02T09:33:11.862Z,44.40
2019-05-02T09:35:42.174Z,44.50
2019-05-02T09:38:12.946Z,44.10
2019-05-02T09:40:42.789Z,43.90
2019-05-02T09:43:13.883Z,43.90
2019-05-02T09:45:43.975Z,43.40
2019-05-02T09:48:17.119Z,43.10
2019-05-02T09:50:44.471Z,42.90
2019-05-02T09:53:20.594Z,42.60
2019-05-02T09:55:50.186Z,42.30
2019-05-02T09:58:21.045Z,42.30
2019-05-02T10:01:06.035Z,42.00
2019-05-02T10:03:35.522Z,41.90
2019-05-02T10:06:08.388Z,41.90
2019-05-02T10:08:38.294Z,42.10
2019-05-02T10:11:07.891Z,41.90
2019-05-02T10:13:37.331Z,41.60
2019-05-02T10:16:07.178Z,41.30
2019-05-02T10:18:36.640Z,41.00
2019-05-02T10:21:07.864Z,41.10
2019-05-02T10:23:37.126Z,40.50
2019-05-02T10:26:06.519Z,40.20
2019-05-02T10:28:35.904Z,39.70
2019-05-02T10:31:05.581Z,39.40
2019-05-02T10:33:37.580Z,39.30
2019-05-02T10:36:06.071Z,39.00
2019-05-02T10:38:35.473Z,39.00
2019-05-02T10:41:05.063Z,38.70
2019-05-02T10:43:34.455Z,38.50
2019-05-02T10:46:09.874Z,37.40
2019-05-02T10:48:44.404Z,37.60
2019-05-02T10:51:31.640Z,37.30
2019-05-02T10:54:02.265Z,36.90
2019-05-02T10:56:32.408Z,36.90
2019-05-02T10:59:02.324Z,37.00
2019-05-02T11:01:37.063Z,37.00
2019-05-02T11:04:08.747Z,36.90
2019-05-02T11:06:42.564Z,37.00
2019-05-02T11:09:12.079Z,37.20
2019-05-02T11:11:42.540Z,37.10
2019-05-02T11:14:27.079Z,36.00
2019-05-02T11:17:13.881Z,35.70
2019-05-02T11:19:45.733Z,35.80
2019-05-02T11:22:15.132Z,35.00
2019-05-02T11:24:44.547Z,35.20
2019-05-02T11:27:13.924Z,34.80
2019-05-02T11:29:43.335Z,35.00
2019-05-02T11:32:12.869Z,34.70
2019-05-02T11:34:42.242Z,34.00
2019-05-02T11:37:12.123Z,33.80
2019-05-02T11:39:46.152Z,33.60
2019-05-02T11:42:12.628Z,33.90
2019-05-02T11:44:42.041Z,34.10
2019-05-02T11:47:12.647Z,34.30
2019-05-02T11:49:46.545Z,34.00
2019-05-02T11:52:13.154Z,33.30
2019-05-02T11:54:46.741Z,33.40
2019-05-02T11:57:13.701Z,33.50
2019-05-02T11:59:43.127Z,33.80
2019-05-02T12:02:31.892Z,34.10
2019-05-02T12:05:01.985Z,34.50
2019-05-02T12:07:32.452Z,34.80
2019-05-02T12:10:04.531Z,35.00
2019-05-02T12:12:36.297Z,35.00
2019-05-02T12:15:04.367Z,35.20
2019-05-02T12:17:34.103Z,35.00
2019-05-02T12:20:03.557Z,35.00
2019-05-02T12:22:32.950Z,34.80
2019-05-02T12:25:03.014Z,35.10
2019-05-02T12:27:32.485Z,35.30
2019-05-02T12:30:03.331Z,35.40
2019-05-02T12:32:33.462Z,35.60
2019-05-02T12:35:03.088Z,36.00
2019-05-02T12:37:32.745Z,36.40
2019-05-02T12:40:02.768Z,36.90
2019-05-02T12:42:33.072Z,37.30
2019-05-02T12:45:02.974Z,37.60
2019-05-02T12:47:32.336Z,37.70
2019-05-02T12:50:03.177Z,37.70
2019-05-02T12:52:32.665Z,37.70
2019-05-02T12:55:03.010Z,37.80
2019-05-02T12:57:32.450Z,37.50
2019-05-02T13:00:02.158Z,37.10
2019-05-02T13:02:38.135Z,36.60
2019-05-02T13:05:07.647Z,36.50
2019-05-02T13:07:37.055Z,36.50
2019-05-02T13:10:06.819Z,36.70
2019-05-02T13:12:38.196Z,36.80
2019-05-02T13:15:08.263Z,36.90
2019-05-02T13:17:43.931Z,36.90
2019-05-02T13:20:12.428Z,36.90
2019-05-02T13:23:01.000Z,36.60
2019-05-02T13:25:35.202Z,36.40
2019-05-02T13:28:02.015Z,35.80
2019-05-02T13:30:46.212Z,35.90
2019-05-02T13:33:19.389Z,35.80
2019-05-02T13:35:51.965Z,35.50
2019-05-02T13:38:22.850Z,35.20
2019-05-02T13:40:52.579Z,35.20
2019-05-02T13:43:24.324Z,35.00
2019-05-02T13:46:22.235Z,34.90
2019-05-02T13:48:52.487Z,34.40
2019-05-02T13:51:22.320Z,34.50
2019-05-02T13:53:56.448Z,34.20
2019-05-02T13:56:48.503Z,34.30
2019-05-02T13:59:18.774Z,34.30
2019-05-02T14:01:52.068Z,34.50
2019-05-02T14:04:23.283Z,34.30
2019-05-02T14:06:53.129Z,34.40
2019-05-02T14:09:39.876Z,34.50
2019-05-02T14:12:28.199Z,34.60
2019-05-02T14:14:57.651Z,34.20
2019-05-02T14:17:27.119Z,34.30
2019-05-02T14:20:07.818Z,34.40
2019-05-02T14:22:29.148Z,34.60
2019-05-02T14:24:58.607Z,34.60
2019-05-02T14:27:28.015Z,34.30
2019-05-02T14:29:57.427Z,34.00
2019-05-02T14:32:26.855Z,33.90
2019-05-02T14:35:18.716Z,33.80
2019-05-02T14:38:08.159Z,33.70
2019-05-02T14:40:42.520Z,33.40
2019-05-02T14:43:13.018Z,33.40
2019-05-02T14:45:43.909Z,33.20
2019-05-02T14:48:19.290Z,33.10
2019-05-02T14:50:46.978Z,33.20
2019-05-02T14:53:16.732Z,33.20
2019-05-02T14:55:49.028Z,33.40
2019-05-02T14:58:18.449Z,33.60
2019-05-02T15:00:49.424Z,33.50
2019-05-02T15:03:19.108Z,33.80
2019-05-02T15:05:50.131Z,34.00
2019-05-02T15:08:19.558Z,34.50
2019-05-02T15:10:52.445Z,35.00
2019-05-02T15:13:20.088Z,35.40
2019-05-02T15:15:49.540Z,35.70
2019-05-02T15:18:18.996Z,35.90
2019-05-02T15:20:48.408Z,36.40
2019-05-02T15:23:19.884Z,36.60
2019-05-02T15:25:52.623Z,36.70
2019-05-02T15:28:22.567Z,37.00
2019-05-02T15:31:06.767Z,37.20
2019-05-02T15:33:42.184Z,37.50
2019-05-02T15:36:11.931Z,37.50
2019-05-02T15:38:45.651Z,37.70
2019-05-02T15:41:13.578Z,37.90
2019-05-02T15:43:44.490Z,38.50
2019-05-02T15:46:15.646Z,39.30
2019-05-02T15:48:45.592Z,39.90
2019-05-02T15:51:14.995Z,40.50
2019-05-02T15:54:04.499Z,40.70
2019-05-02T15:56:24.195Z,40.80
2019-05-02T15:58:52.967Z,40.80
2019-05-02T16:01:36.787Z,40.40
2019-05-02T16:04:04.390Z,39.40
2019-05-02T16:06:36.059Z,37.30
2019-05-02T16:09:07.284Z,36.00
2019-05-02T16:11:37.063Z,35.10
2019-05-02T16:14:06.513Z,34.50
2019-05-02T16:16:36.702Z,33.70
2019-05-02T16:19:07.241Z,32.60
2019-05-02T16:21:44.950Z,31.70
2019-05-02T16:24:22.541Z,31.50
2019-05-02T16:26:53.156Z,31.80
2019-05-02T16:29:26.796Z,32.50
2019-05-02T16:32:03.606Z,33.40
2019-05-02T16:34:35.769Z,34.70
2019-05-02T16:37:16.378Z,35.80
2019-05-02T16:39:49.638Z,36.30
2019-05-02T16:42:14.122Z,36.70
2019-05-02T16:44:43.528Z,37.50
2019-05-02T16:47:13.899Z,37.90
2019-05-02T16:49:43.536Z,38.50
2019-05-02T16:52:16.004Z,39.00
2019-05-02T16:54:44.358Z,39.50
2019-05-02T16:57:17.511Z,41.00
2019-05-02T16:59:44.813Z,43.30
2019-05-02T17:02:14.357Z,47.10
2019-05-02T17:04:43.695Z,49.10
2019-05-02T17:07:17.962Z,51.20
2019-05-02T17:09:57.826Z,53.10
2019-05-02T17:12:27.207Z,54.50
2019-05-02T17:15:14.289Z,56.00
2019-05-02T17:17:43.724Z,56.50
2019-05-02T17:20:16.665Z,57.10
2019-05-02T17:22:49.864Z,57.70
2019-05-02T17:25:17.046Z,58.40
2019-05-02T17:27:46.527Z,58.60
2019-05-02T17:30:17.118Z,59.10
2019-05-02T17:32:46.492Z,59.60
2019-05-02T17:35:16.105Z,60.40
2019-05-02T17:37:48.741Z,61.80
2019-05-02T17:40:21.384Z,61.40
2019-05-02T17:42:47.811Z,61.90
2019-05-02T17:45:17.475Z,62.20
2019-05-02T17:47:47.347Z,62.10
2019-05-02T17:50:42.688Z,62.60
2019-05-02T17:53:12.207Z,62.90
2019-05-02T17:55:44.255Z,63.50
2019-05-02T17:58:16.044Z,63.90
2019-05-02T18:00:47.432Z,64.30
2019-05-02T18:03:17.333Z,64.90
2019-05-02T18:05:46.738Z,65.90
2019-05-02T18:08:16.239Z,66.30
2019-05-02T18:10:45.701Z,66.90
2019-05-02T18:13:15.141Z,67.10
2019-05-02T18:15:44.520Z,67.20
2019-05-02T18:18:13.935Z,67.40
2019-05-02T18:20:46.511Z,67.40
2019-05-02T18:23:18.650Z,67.70
2019-05-02T18:25:45.431Z,68.20
2019-05-02T18:28:24.519Z,68.20
2019-05-02T18:30:45.895Z,68.30
2019-05-02T18:33:15.207Z,68.80
2019-05-02T18:35:46.875Z,69.20
2019-05-02T18:38:20.454Z,69.70
2019-05-02T18:40:47.180Z,70.30
2019-05-02T18:43:16.669Z,70.40
2019-05-02T18:45:46.192Z,70.80
2019-05-02T18:48:15.595Z,71.50
2019-05-02T18:50:47.683Z,71.50
2019-05-02T18:53:21.768Z,72.30
2019-05-02T18:55:47.357Z,72.80
2019-05-02T18:58:17.771Z,73.20
2019-05-02T19:00:47.179Z,73.80
2019-05-02T19:03:17.306Z,74.30
2019-05-02T19:05:46.847Z,74.40
2019-05-02T19:08:27.862Z,74.60
2019-05-02T19:11:02.620Z,74.90
2019-05-02T19:13:18.520Z,74.80
2019-05-02T19:15:49.044Z,74.90
2019-05-02T19:18:19.658Z,75.80
2019-05-02T19:21:02.827Z,75.00
2019-05-02T19:23:32.802Z,75.20
2019-05-02T19:26:09.962Z,75.10
2019-05-02T19:28:56.960Z,75.20
2019-05-02T19:31:32.025Z,75.30
2019-05-02T19:34:02.399Z,75.60
2019-05-02T19:36:32.750Z,75.40
2019-05-02T19:39:06.312Z,75.70
2019-05-02T19:41:33.421Z,75.60
2019-05-02T19:44:02.869Z,75.80
2019-05-02T19:46:38.599Z,75.80
2019-05-02T19:49:06.897Z,75.70
2019-05-02T19:51:34.319Z,75.60
2019-05-02T19:54:06.849Z,75.60
2019-05-02T19:56:45.855Z,75.50
2019-05-02T19:59:06.115Z,75.50
2019-05-02T20:01:35.550Z,75.60
2019-05-02T20:04:06.409Z,75.50
2019-05-02T20:06:36.332Z,75.50
2019-05-02T20:09:08.582Z,75.40
2019-05-02T20:11:37.983Z,75.40
2019-05-02T20:14:09.690Z,75.40
2019-05-02T20:16:48.193Z,75.30
2019-05-02T20:19:23.141Z,75.30
2019-05-02T20:22:07.581Z,75.00
2019-05-02T20:25:00.390Z,74.80
2019-05-02T20:27:28.659Z,74.60
2019-05-02T20:29:58.222Z,74.30
2019-05-02T20:32:27.627Z,74.20
2019-05-02T20:34:57.049Z,74.10
2019-05-02T20:37:26.397Z,74.10
2019-05-02T20:39:55.785Z,74.10
2019-05-02T20:42:25.199Z,74.00
2019-05-02T20:44:54.627Z,74.60
2019-05-02T20:47:25.430Z,73.80
2019-05-02T20:49:54.840Z,73.80
2019-05-02T20:52:24.204Z,73.80
2019-05-02T20:54:53.655Z,73.90
2019-05-02T20:57:23.070Z,73.90
2019-05-02T20:59:52.696Z,74.20
2019-05-02T21:02:22.333Z,74.30
2019-05-02T21:04:52.291Z,74.60
2019-05-02T21:07:49.938Z,74.80
2019-05-02T21:10:28.963Z,75.00
2019-05-02T21:12:58.358Z,75.30
2019-05-02T21:15:27.852Z,75.60
2019-05-02T21:17:57.273Z,75.60
2019-05-02T21:20:26.719Z,76.00
2019-05-02T21:22:56.276Z,75.90
2019-05-02T21:25:25.656Z,76.00
2019-05-02T21:27:55.060Z,76.20
2019-05-02T21:30:25.560Z,76.30
2019-05-02T21:32:54.961Z,76.70
2019-05-02T21:35:24.372Z,77.00
2019-05-02T21:37:53.790Z,77.20
2019-05-02T21:40:25.552Z,77.40
2019-05-02T21:42:54.227Z,77.60
2019-05-02T21:45:23.629Z,77.70
2019-05-02T21:47:53.076Z,77.90
2019-05-02T21:50:39.496Z,78.20
2019-05-02T21:53:19.746Z,78.30
2019-05-02T21:55:54.716Z,78.50
2019-05-02T21:58:24.151Z,78.50
2019-05-02T22:01:03.390Z,78.60
2019-05-02T22:03:33.116Z,78.60
2019-05-02T22:06:02.533Z,78.60
2019-05-02T22:08:32.401Z,78.50
2019-05-02T22:11:01.771Z,78.50
2019-05-02T22:13:31.559Z,78.40
2019-05-02T22:16:02.328Z,78.30
2019-05-02T22:18:32.104Z,78.20
2019-05-02T22:21:01.814Z,78.10
2019-05-02T22:23:31.805Z,78.10
2019-05-02T22:26:02.241Z,77.90
2019-05-02T22:28:32.735Z,77.90
2019-05-02T22:31:03.184Z,77.90
2019-05-02T22:33:33.023Z,77.90
2019-05-02T22:36:02.420Z,77.80
2019-05-02T22:38:56.739Z,77.60
2019-05-02T22:41:26.115Z,77.20
2019-05-02T22:43:55.543Z,77.10
2019-05-02T22:46:44.025Z,77.30
2019-05-02T22:49:14.930Z,77.60
2019-05-02T22:51:44.957Z,77.90
2019-05-02T22:54:26.833Z,78.10
2019-05-02T22:56:45.735Z,78.30
2019-05-02T22:59:15.119Z,78.50
2019-05-02T23:01:44.524Z,78.60
2019-05-02T23:04:13.912Z,78.60
2019-05-02T23:06:44.283Z,78.70
2019-05-02T23:09:13.791Z,79.00
2019-05-02T23:11:43.231Z,79.20
2019-05-02T23:14:12.632Z,80.00
2019-05-02T23:16:42.805Z,80.50
2019-05-02T23:19:12.611Z,81.30
2019-05-02T23:21:42.484Z,81.80
2019-05-02T23:24:22.555Z,82.30
2019-05-02T23:27:11.711Z,82.90
2019-05-02T23:29:42.547Z,83.20
2019-05-02T23:32:11.931Z,83.40
2019-05-02T23:34:41.764Z,83.60
2019-05-02T23:37:11.963Z,84.10
2019-05-02T23:39:41.739Z,84.10
2019-05-02T23:42:11.287Z,84.10
2019-05-02T23:44:42.514Z,84.40
2019-05-02T23:47:11.841Z,84.70
2019-05-02T23:49:42.686Z,84.80
2019-05-02T23:52:12.183Z,84.90
2019-05-02T23:54:50.052Z,84.90
2019-05-02T23:57:12.599Z,85.10
2019-05-02T23:59:42.423Z,85.00
